Time;durP1;ratioP1;P1;durP2;ratioP2;P2;SDS_P1;SDS_P2;PMS_P1;PMS_P2;Temp;Humidity;BMP_temperature;BMP_pressure;BME280_temperature;BME280_humidity;BME280_pressure;Samples;Min_cycle;Max_cycle;Signal;HPM_P1;HPM_P2
2024/01/17 00:03:24;;;;;;;3.55;1.23;;;;;;;19.47;29.03;100108.69;16131383;19;129363;-74
2024/01/17 00:08:46;;;;;;;2.25;1.20;;;;;;;19.43;29.07;100096.47;16129951;19;130179;-74
2024/01/17 00:14:11;;;;;;;1.73;1.20;;;;;;;19.37;29.13;100088.13;16129870;19;129910;-74
2024/01/17 00:19:33;;;;;;;2.93;1.37;;;;;;;19.30;28.97;100082.00;16127383;19;130470;-74
2024/01/17 00:24:55;;;;;;;4.05;1.30;;;;;;;19.25;28.75;100062.56;16125990;19;130806;-74
2024/01/17 00:30:17;;;;;;;3.08;1.42;;;;;;;19.19;28.98;100050.59;16130445;19;130084;-74
2024/01/17 00:35:39;;;;;;;1.90;1.23;;;;;;;19.15;28.81;100040.31;16129911;19;129597;-75
2024/01/17 00:41:05;;;;;;;3.58;1.60;;;;;;;19.11;29.16;100034.50;16129742;19;130083;-74
2024/01/17 00:46:27;;;;;;;3.10;1.48;;;;;;;19.04;29.29;100023.66;16129894;19;129805;-75
2024/01/17 00:51:49;;;;;;;2.25;1.10;;;;;;;19.00;28.86;100022.53;16132680;19;129510;-75
2024/01/17 00:57:11;;;;;;;2.05;1.40;;;;;;;18.97;29.20;100005.59;16135051;19;129932;-74
2024/01/17 01:02:33;;;;;;;3.85;1.48;;;;;;;18.92;28.89;99998.94;16147709;19;129447;-74
2024/01/17 01:07:55;;;;;;;2.63;1.27;;;;;;;18.88;28.95;99983.97;16146133;19;129982;-74
2024/01/17 01:13:17;;;;;;;1.95;1.02;;;;;;;18.85;29.34;99980.88;16153104;19;129520;-74
2024/01/17 01:18:39;;;;;;;2.03;1.27;;;;;;;18.80;29.22;99981.69;16148467;19;129712;-74
2024/01/17 01:24:01;;;;;;;2.08;1.20;;;;;;;18.75;29.00;99974.19;16138339;19;129444;-74
2024/01/17 01:29:23;;;;;;;1.30;0.98;;;;;;;18.72;29.27;99971.13;16144444;19;130693;-74
2024/01/17 01:34:45;;;;;;;1.67;1.15;;;;;;;18.68;29.05;99973.63;16140307;19;130177;-74
2024/01/17 01:40:07;;;;;;;1.70;1.17;;;;;;;18.65;29.06;99965.00;16184665;19;129769;-74
2024/01/17 01:45:29;;;;;;;2.13;1.40;;;;;;;18.60;29.37;99955.56;16203424;19;130209;-75
2024/01/17 01:50:52;;;;;;;3.88;1.25;;;;;;;18.58;29.37;99943.09;16202529;19;129356;-74
2024/01/17 01:56:18;;;;;;;2.08;1.10;;;;;;;18.54;29.14;99931.72;16202449;19;129627;-74
2024/01/17 02:01:41;;;;;;;1.50;0.95;;;;;;;18.52;29.15;99924.78;16202317;19;129781;-74
2024/01/17 02:07:03;;;;;;;2.13;1.20;;;;;;;18.48;29.47;99916.19;16205110;19;132638;-74
2024/01/17 02:12:25;;;;;;;1.88;1.10;;;;;;;18.48;29.35;99898.72;16205621;19;129159;-74
2024/01/17 02:17:47;;;;;;;2.30;1.30;;;;;;;18.44;29.20;99881.81;16207464;19;129001;-75
2024/01/17 02:23:23;;;;;;;3.17;1.30;;;;;;;18.45;29.37;99886.25;16168372;19;130533;-74
2024/01/17 02:28:45;;;;;;;4.88;1.25;;;;;;;18.38;29.62;99878.16;16126917;19;129532;-74
2024/01/17 02:34:08;;;;;;;2.17;1.13;;;;;;;18.37;29.62;99879.25;16119248;19;130546;-76
2024/01/17 02:39:30;;;;;;;1.45;1.00;;;;;;;18.34;29.63;99863.19;16123099;19;129141;-75
2024/01/17 02:44:52;;;;;;;1.92;1.13;;;;;;;18.32;29.46;99848.81;16123128;19;130104;-74
2024/01/17 02:50:17;;;;;;;1.58;0.90;;;;;;;18.31;29.39;99839.66;16118392;19;129471;-75
2024/01/17 02:55:39;;;;;;;2.38;0.70;;;;;;;18.27;29.56;99843.22;16122040;19;129651;-75
2024/01/17 03:01:01;;;;;;;1.98;0.90;;;;;;;18.26;29.21;99827.72;16120369;19;129466;-74
2024/01/17 03:06:23;;;;;;;0.98;0.85;;;;;;;18.23;29.39;99815.25;16121786;19;134579;-75
2024/01/17 03:11:45;;;;;;;1.30;0.80;;;;;;;18.22;29.50;99796.13;16125758;19;129535;-75
2024/01/17 03:17:08;;;;;;;2.03;1.15;;;;;;;18.18;29.60;99779.25;16121399;19;132847;-76
2024/01/17 03:22:30;;;;;;;1.58;0.80;;;;;;;18.18;29.56;99770.94;16120874;19;129348;-74
2024/01/17 03:27:52;;;;;;;1.48;0.90;;;;;;;18.14;29.57;99754.06;16117922;19;129567;-75
2024/01/17 03:33:14;;;;;;;2.53;0.90;;;;;;;18.13;29.32;99743.25;16119986;19;129283;-75
2024/01/17 03:38:36;;;;;;;0.98;0.80;;;;;;;18.11;29.54;99728.84;16119404;19;129472;-75
2024/01/17 03:43:58;;;;;;;1.38;0.75;;;;;;;18.09;29.42;99709.72;16120108;19;129591;-75
2024/01/17 03:49:20;;;;;;;1.33;0.80;;;;;;;18.06;29.51;99710.31;16118762;19;129574;-75
2024/01/17 03:54:42;;;;;;;1.20;0.75;;;;;;;18.05;29.59;99705.03;16117663;19;129277;-75
2024/01/17 04:00:06;;;;;;;1.50;0.73;;;;;;;18.03;29.22;99666.56;16120651;19;129670;-75
2024/01/17 04:05:28;;;;;;;1.48;0.80;;;;;;;18.01;29.52;99641.09;16115443;19;129798;-75
2024/01/17 04:10:50;;;;;;;3.05;0.90;;;;;;;17.98;29.15;99630.56;16116845;19;130138;-74
2024/01/17 04:16:12;;;;;;;1.17;0.90;;;;;;;17.97;29.47;99620.63;16113653;19;129967;-74
2024/01/17 04:21:34;;;;;;;1.27;0.70;;;;;;;17.95;29.13;99614.53;16114911;19;131443;-74
2024/01/17 04:26:56;;;;;;;1.17;0.98;;;;;;;17.92;29.06;99604.00;16113181;19;130478;-75
2024/01/17 04:32:18;;;;;;;1.95;1.00;;;;;;;17.90;29.07;99581.31;16116455;19;129004;-75
2024/01/17 04:37:40;;;;;;;1.48;0.98;;;;;;;17.87;29.39;99559.72;16113484;19;132172;-76
2024/01/17 04:43:02;;;;;;;2.15;0.80;;;;;;;17.85;29.34;99560.81;16123296;19;130036;-78
2024/01/17 04:48:24;;;;;;;1.20;1.00;;;;;;;17.83;29.11;99557.53;16130206;19;129867;-75
2024/01/17 04:53:46;;;;;;;1.73;0.95;;;;;;;17.79;29.08;99545.31;16129007;19;129773;-75
2024/01/17 04:59:09;;;;;;;2.15;0.88;;;;;;;17.77;29.19;99542.00;16126051;19;131170;-76
2024/01/17 05:04:32;;;;;;;1.00;0.70;;;;;;;17.75;29.34;99527.59;16122279;19;129793;-75
2024/01/17 05:09:54;;;;;;;1.73;0.98;;;;;;;17.73;29.13;99524.28;16126598;19;129340;-74
2024/01/17 05:15:16;;;;;;;1.35;0.85;;;;;;;17.73;28.96;99523.47;16126235;19;129297;-74
2024/01/17 05:20:39;;;;;;;1.20;0.95;;;;;;;17.71;29.25;99514.59;16125695;19;131128;-74
2024/01/17 05:26:01;;;;;;;1.10;0.90;;;;;;;17.67;28.98;99487.50;16127536;19;129530;-75
2024/01/17 05:31:23;;;;;;;1.08;0.90;;;;;;;17.66;29.11;99505.19;16128603;19;131186;-74
2024/01/17 05:36:45;;;;;;;1.60;0.80;;;;;;;17.65;29.11;99491.66;16126123;19;130554;-75
2024/01/17 05:42:07;;;;;;;2.00;0.80;;;;;;;17.62;28.98;99478.34;16130540;19;129354;-74
2024/01/17 05:47:30;;;;;;;1.75;1.20;;;;;;;17.61;29.20;99465.63;16123028;19;131263;-75
2024/01/17 05:52:52;;;;;;;0.93;0.70;;;;;;;17.60;28.80;99453.75;16125828;19;129525;-78
2024/01/17 05:58:14;;;;;;;3.17;1.00;;;;;;;17.57;28.99;99448.78;16128150;19;129659;-82
2024/01/17 06:03:36;;;;;;;1.48;0.93;;;;;;;17.58;29.13;99449.63;16121577;19;130470;-81
2024/01/17 06:08:58;;;;;;;1.85;1.15;;;;;;;17.57;29.10;99436.91;16129584;19;129310;-80
2024/01/17 06:14:20;;;;;;;1.80;0.85;;;;;;;17.57;28.83;99425.84;16125321;19;129790;-80
2024/01/17 06:19:42;;;;;;;3.05;0.98;;;;;;;17.57;28.96;99423.06;16128289;19;129595;-79
2024/01/17 06:25:06;;;;;;;2.55;1.00;;;;;;;17.57;28.84;99412.81;16131806;19;130360;-80
2024/01/17 06:30:28;;;;;;;1.80;1.00;;;;;;;17.57;29.12;99403.72;16125592;19;131477;-80
2024/01/17 06:35:50;;;;;;;1.20;0.80;;;;;;;17.58;29.07;99399.84;16123808;19;130961;-79
2024/01/17 06:41:12;;;;;;;1.77;0.90;;;;;;;17.57;29.12;99381.59;16130870;19;129402;-80
2024/01/17 06:46:34;;;;;;;3.50;0.80;;;;;;;17.63;28.93;99375.78;16131083;19;130416;-80
2024/01/17 06:51:56;;;;;;;3.13;0.80;;;;;;;17.84;29.20;99364.69;16125086;19;128899;-82
2024/01/17 06:57:19;;;;;;;2.35;1.10;;;;;;;18.22;28.90;99336.63;16142374;19;130902;-81
2024/01/17 07:02:41;;;;;;;1.25;0.60;;;;;;;18.77;28.52;99331.13;16145669;19;129360;-81
2024/01/17 07:08:03;;;;;;;2.08;0.80;;;;;;;19.30;28.11;99327.78;16142911;19;131181;-81
2024/01/17 07:13:25;;;;;;;2.28;0.70;;;;;;;19.81;27.35;99314.53;16134869;19;129698;-79
2024/01/17 07:18:47;;;;;;;2.67;1.10;;;;;;;20.07;27.27;99308.72;16130886;19;133048;-81
2024/01/17 07:24:10;;;;;;;6.57;1.05;;;;;;;20.20;26.80;99296.06;16137200;19;129789;-80
2024/01/17 07:29:32;;;;;;;3.55;1.05;;;;;;;20.19;26.61;99291.66;16137749;19;130598;-79
2024/01/17 07:34:57;;;;;;;5.40;1.23;;;;;;;20.12;26.65;99287.25;16122899;19;129455;-79
2024/01/17 07:40:19;;;;;;;2.90;1.02;;;;;;;19.95;27.38;99276.63;16130268;19;129109;-74
2024/01/17 07:45:41;;;;;;;3.80;1.00;;;;;;;19.81;27.37;99281.25;16131475;19;129539;-73
2024/01/17 07:51:05;;;;;;;4.75;1.27;;;;;;;19.77;27.46;99253.22;16133926;19;129471;-82
2024/01/17 07:56:27;;;;;;;1.60;1.08;;;;;;;19.75;27.56;99240.78;16135024;19;129604;-77
2024/01/17 08:01:49;;;;;;;6.45;1.23;;;;;;;19.82;27.17;99238.47;16132888;19;129727;-71
2024/01/17 08:07:12;;;;;;;1.73;0.90;;;;;;;20.00;27.18;99228.56;16117020;19;129790;-69
2024/01/17 08:12:34;;;;;;;1.95;1.00;;;;;;;20.30;26.76;99223.75;16113780;19;131333;-73
2024/01/17 08:17:56;;;;;;;3.03;1.27;;;;;;;20.64;26.52;99203.22;16125152;19;130912;-73
2024/01/17 08:23:18;;;;;;;2.67;1.08;;;;;;;20.87;26.42;99195.94;16129584;19;130559;-73
2024/01/17 08:28:40;;;;;;;4.25;1.00;;;;;;;21.00;26.45;99193.50;16132937;19;129643;-73
2024/01/17 08:34:07;;;;;;;4.00;1.15;;;;;;;21.08;25.94;99184.47;16126826;19;130146;-72
2024/01/17 08:39:29;;;;;;;2.22;1.13;;;;;;;21.18;25.77;99156.47;16104200;19;130089;-73
2024/01/17 08:44:51;;;;;;;5.85;1.30;;;;;;;21.33;25.55;99146.19;16131213;19;129701;-73
2024/01/17 08:50:14;;;;;;;4.10;1.35;;;;;;;21.42;25.67;99133.19;16130104;19;129475;-72
2024/01/17 08:55:36;;;;;;;3.10;1.45;;;;;;;21.45;25.52;99129.81;16129554;19;131187;-73
2024/01/17 09:00:58;;;;;;;2.80;1.33;;;;;;;21.40;25.25;99129.94;16121066;19;131542;-72
2024/01/17 09:06:20;;;;;;;1.52;1.10;;;;;;;21.32;25.74;99123.13;16122811;19;130361;-72
2024/01/17 09:11:42;;;;;;;7.95;1.40;;;;;;;21.21;26.08;99111.38;16121555;19;130521;-74
2024/01/17 09:17:04;;;;;;;5.25;1.40;;;;;;;21.16;25.93;99108.69;16128577;19;130506;-74
2024/01/17 09:22:26;;;;;;;6.72;1.48;;;;;;;21.08;25.65;99111.38;16125295;19;130310;-74
2024/01/17 09:27:49;;;;;;;6.70;1.60;;;;;;;20.99;25.79;99105.69;16123187;19;130733;-75
2024/01/17 09:33:11;;;;;;;2.38;1.35;;;;;;;20.92;25.73;99091.38;16129790;19;130249;-73
2024/01/17 09:38:33;;;;;;;3.33;1.58;;;;;;;20.83;25.58;99086.50;16122252;19;129488;-74
2024/01/17 09:43:56;;;;;;;6.25;1.75;;;;;;;20.73;25.40;99090.28;16119230;19;130492;-74
2024/01/17 09:49:18;;;;;;;3.03;1.40;;;;;;;20.66;25.62;99094.59;16126894;19;131282;-75
2024/01/17 09:54:42;;;;;;;5.68;1.95;;;;;;;20.59;25.90;99090.22;16130297;19;129770;-76
2024/01/17 10:00:09;;;;;;;4.75;1.50;;;;;;;20.50;25.88;99092.06;16124513;19;129459;-74
2024/01/17 10:05:35;;;;;;;4.93;1.45;;;;;;;20.39;25.81;99090.59;16122755;19;129853;-75
2024/01/17 10:10:58;;;;;;;2.67;1.42;;;;;;;20.35;26.07;99089.53;16119801;19;129669;-74
2024/01/17 10:16:20;;;;;;;4.03;1.50;;;;;;;20.29;25.84;99075.75;16117172;19;130051;-80
2024/01/17 10:21:43;;;;;;;5.43;2.15;;;;;;;20.27;25.40;99061.34;16131325;19;131726;-81
2024/01/17 10:27:06;;;;;;;5.45;2.25;;;;;;;20.27;25.44;99054.94;16123069;19;129915;-79
2024/01/17 10:32:30;;;;;;;3.67;1.80;;;;;;;20.26;25.62;99043.03;16128950;19;131294;-80
2024/01/17 10:37:53;;;;;;;3.00;1.88;;;;;;;20.24;25.58;99028.63;16128762;19;129414;-79
2024/01/17 10:43:16;;;;;;;8.25;2.05;;;;;;;20.21;25.51;99037.53;16128982;19;129335;-79
2024/01/17 10:48:38;;;;;;;7.35;2.20;;;;;;;20.19;25.78;99025.09;16128395;19;130009;-80
2024/01/17 10:54:03;;;;;;;4.65;1.73;;;;;;;20.14;25.42;99017.69;16129698;19;129932;-81
2024/01/17 10:59:26;;;;;;;6.43;2.28;;;;;;;20.10;25.73;99009.16;16126941;19;130153;-80
2024/01/17 11:05:07;;;;;;;7.82;2.00;;;;;;;20.09;25.76;98998.31;16133845;19;130545;-81
2024/01/17 11:10:29;;;;;;;5.60;1.80;;;;;;;20.06;25.97;98987.84;16126340;19;129363;-80
2024/01/17 11:15:53;;;;;;;6.57;1.75;;;;;;;20.02;25.91;98975.69;16125590;19;129929;-80
2024/01/17 11:21:18;;;;;;;2.67;1.52;;;;;;;19.99;26.00;98972.41;16117109;19;129757;-80
2024/01/17 11:26:54;;;;;;;3.10;1.47;;;;;;;20.00;26.12;98970.44;16115007;19;131116;-74
2024/01/17 11:32:40;;;;;;;9.43;2.83;;;;;;;19.98;25.81;98953.25;16108865;19;133216;-73
2024/01/17 11:38:11;;;;;;;7.30;2.60;;;;;;;19.90;25.59;98935.34;16113414;19;129372;-74
2024/01/17 11:43:37;;;;;;;7.38;2.08;;;;;;;19.91;25.97;98931.44;16106429;19;134078;-73
2024/01/17 11:48:59;;;;;;;6.20;2.40;;;;;;;19.99;25.45;98922.44;16114374;19;129607;-74
2024/01/17 11:54:24;;;;;;;10.13;2.15;;;;;;;20.11;25.25;98904.47;16130202;19;129886;-74
2024/01/17 12:00:21;;;;;;;10.00;2.27;;;;;;;20.20;25.42;98888.75;16131464;19;131294;-73
2024/01/17 12:05:45;;;;;;;11.05;2.65;;;;;;;20.32;25.65;98885.47;16116018;19;131079;-70
2024/01/17 12:11:07;;;;;;;8.45;2.50;;;;;;;20.44;25.50;98882.19;16117141;19;130365;-69
2024/01/17 12:16:29;;;;;;;11.18;2.47;;;;;;;20.53;25.47;98849.78;16117859;19;130152;-68
2024/01/17 12:21:51;;;;;;;15.57;2.50;;;;;;;20.60;25.83;98843.81;16116724;19;129431;-68
2024/01/17 12:27:13;;;;;;;11.63;2.67;;;;;;;20.63;25.90;98820.13;16118085;19;131560;-68
2024/01/17 12:32:35;;;;;;;15.32;2.55;;;;;;;20.60;25.78;98800.19;16110385;19;129988;-68
2024/01/17 12:37:57;;;;;;;16.38;2.95;;;;;;;20.58;25.63;98799.66;16090258;19;131597;-71
2024/01/17 12:43:20;;;;;;;10.18;2.42;;;;;;;20.56;25.74;98779.69;16125087;19;129568;-71
2024/01/17 12:48:56;;;;;;;19.77;2.75;;;;;;;20.54;25.21;98776.44;16124726;19;131928;-67
2024/01/17 12:54:19;;;;;;;18.10;3.20;;;;;;;20.48;24.80;98755.44;16124146;19;130697;-68
2024/01/17 12:59:41;;;;;;;9.02;2.65;;;;;;;20.41;24.88;98747.53;16122377;19;130349;-73
2024/01/17 13:05:10;;;;;;;11.80;2.25;;;;;;;20.49;24.98;98739.63;16124188;19;129843;-67
2024/01/17 13:10:35;;;;;;;13.70;2.45;;;;;;;20.65;24.88;98737.31;16121742;19;130131;-68
2024/01/17 13:15:58;;;;;;;13.32;2.30;;;;;;;20.88;25.22;98744.56;16117216;19;129914;-71
2024/01/17 13:21:23;;;;;;;6.68;2.05;;;;;;;21.14;25.12;98740.31;16123103;19;131728;-72
2024/01/17 13:26:45;;;;;;;7.70;2.10;;;;;;;21.35;25.17;98743.41;16125543;19;131609;-68
2024/01/17 13:32:07;;;;;;;10.25;2.17;;;;;;;21.55;24.75;98732.88;16125749;19;131179;-73
2024/01/17 13:37:30;;;;;;;7.93;1.75;;;;;;;21.72;24.68;98741.34;16124333;19;131296;-69
2024/01/17 13:42:52;;;;;;;9.52;3.40;;;;;;;21.79;23.98;98730.53;16122465;19;129361;-69
2024/01/17 13:48:14;;;;;;;6.65;2.20;;;;;;;21.78;23.91;98730.88;16115722;19;129664;-70
2024/01/17 13:53:41;;;;;;;3.60;1.70;;;;;;;21.83;23.77;98725.19;16115309;19;130295;-70
2024/01/17 13:59:03;;;;;;;5.45;2.17;;;;;;;21.94;23.95;98717.34;16119519;19;129362;-69
2024/01/17 14:04:25;;;;;;;6.72;2.05;;;;;;;22.01;24.14;98714.91;16116428;19;129576;-68
2024/01/17 14:09:48;;;;;;;4.28;1.95;;;;;;;22.09;23.93;98705.75;16119541;19;131646;-69
2024/01/17 14:15:10;;;;;;;3.38;1.70;;;;;;;22.15;23.92;98691.69;16139890;19;129824;-68
2024/01/17 14:20:32;;;;;;;6.07;1.70;;;;;;;22.21;23.93;98698.78;16115145;19;130633;-67
2024/01/17 14:25:54;;;;;;;6.35;1.77;;;;;;;22.21;24.24;98698.78;16118233;19;131248;-67
2024/01/17 14:31:16;;;;;;;3.55;1.73;;;;;;;22.17;23.83;98692.16;16134897;19;129389;-71
2024/01/17 14:36:38;;;;;;;6.80;2.10;;;;;;;22.13;24.27;98698.41;16159299;19;130931;-70
2024/01/17 14:42:00;;;;;;;3.40;1.55;;;;;;;22.06;24.16;98700.03;16146088;19;129348;-69
2024/01/17 14:47:22;;;;;;;4.68;1.80;;;;;;;21.97;24.27;98697.22;16116409;19;129746;-67
2024/01/17 14:52:45;;;;;;;3.80;1.70;;;;;;;21.88;24.23;98694.41;16116210;19;130148;-67
2024/01/17 14:58:07;;;;;;;5.35;2.10;;;;;;;21.80;24.69;98693.22;16118910;19;132233;-66
2024/01/17 15:03:29;;;;;;;5.13;1.70;;;;;;;21.79;24.25;98691.59;16110750;19;130993;-68
2024/01/17 15:08:51;;;;;;;9.65;2.70;;;;;;;21.75;23.95;98695.34;16112023;19;131103;-73
2024/01/17 15:14:13;;;;;;;7.13;2.97;;;;;;;21.71;23.69;98689.59;16127760;19;129741;-74
2024/01/17 15:19:35;;;;;;;8.43;3.13;;;;;;;21.67;23.73;98689.44;16124500;19;129695;-73
2024/01/17 15:56:21;;;;;;;26.63;3.15;;;;;;;20.05;27.35;98728.06;3975926;19;3183491;-71
2024/01/17 16:01:43;;;;;;;21.13;3.83;;;;;;;20.12;26.91;98734.81;16196159;19;133380;-71
2024/01/17 16:07:05;;;;;;;13.48;2.88;;;;;;;20.08;26.73;98732.97;16196094;19;130088;-71
2024/01/17 16:12:27;;;;;;;16.33;2.60;;;;;;;19.97;27.03;98743.44;16182723;19;130883;-71
2024/01/17 16:17:49;;;;;;;12.20;2.95;;;;;;;19.82;27.14;98750.09;16188075;19;130093;-71
2024/01/17 16:23:13;;;;;;;15.05;2.25;;;;;;;19.68;27.51;98767.59;16190623;19;130383;-71
2024/01/17 16:28:39;;;;;;;9.63;2.50;;;;;;;19.52;27.82;98750.38;16200156;19;130617;-71
2024/01/17 16:34:01;;;;;;;9.70;2.30;;;;;;;19.38;27.58;98749.56;16196403;19;130114;-71
2024/01/17 16:39:24;;;;;;;11.93;2.83;;;;;;;19.28;27.89;98745.00;16191242;19;129844;-72
2024/01/17 16:44:46;;;;;;;18.10;4.22;;;;;;;19.16;27.37;98756.53;16195903;19;129977;-71
2024/01/17 16:50:09;;;;;;;12.98;5.80;;;;;;;19.20;27.51;98756.78;16198786;19;129293;-72
2024/01/17 16:55:32;;;;;;;59.00;32.83;;;;;;;19.31;30.79;98758.28;16146575;19;129346;-72
2024/01/17 17:00:55;;;;;;;65.88;37.83;;;;;;;19.42;30.00;98763.63;16133002;19;131020;-71
2024/01/17 17:06:17;;;;;;;40.45;23.27;;;;;;;19.54;31.21;98766.75;16131305;19;130877;-71
2024/01/17 17:11:39;;;;;;;44.75;19.15;;;;;;;19.69;31.75;98777.53;16125728;19;129488;-71
2024/01/17 17:17:02;;;;;;;28.35;15.52;;;;;;;19.83;31.93;98768.41;16128781;19;130220;-70
2024/01/17 17:22:26;;;;;;;24.40;12.80;;;;;;;19.89;32.13;98778.28;16130608;19;130199;-69
2024/01/17 17:27:58;;;;;;;18.58;10.38;;;;;;;19.92;31.61;98780.47;16131772;19;130465;-70
2024/01/17 17:33:20;;;;;;;15.63;8.68;;;;;;;19.91;31.63;98798.22;16129530;19;130912;-72
2024/01/17 17:38:43;;;;;;;14.90;8.07;;;;;;;19.89;31.54;98800.50;16131040;19;135019;-71
2024/01/17 17:44:05;;;;;;;16.15;8.20;;;;;;;19.86;31.88;98803.06;16152685;19;130093;-72
2024/01/17 17:49:27;;;;;;;14.23;7.18;;;;;;;19.81;31.32;98812.31;16139744;19;129712;-72
2024/01/17 17:54:56;;;;;;;12.55;6.28;;;;;;;19.75;31.22;98838.47;16135119;19;132180;-72
2024/01/17 18:00:20;;;;;;;21.02;6.43;;;;;;;19.65;30.55;98834.78;16128256;19;130436;-73
2024/01/17 18:05:42;;;;;;;21.35;5.70;;;;;;;19.56;30.21;98839.38;16143345;19;129361;-72
2024/01/17 18:11:05;;;;;;;15.43;4.93;;;;;;;19.48;30.40;98843.66;16163442;19;129657;-73
2024/01/17 18:16:28;;;;;;;13.13;4.75;;;;;;;19.45;30.55;98851.75;16201524;19;128694;-72
2024/01/17 18:21:49;;;;;;;6.85;3.80;;;;;;;19.51;30.15;98864.41;16197805;19;130680;-73
2024/01/17 18:27:13;;;;;;;7.28;3.78;;;;;;;19.60;30.54;98870.91;16196542;19;128430;-77
2024/01/17 18:32:35;;;;;;;12.85;3.75;;;;;;;19.71;30.50;98867.94;16173624;19;129206;-72
2024/01/17 18:37:57;;;;;;;9.63;3.55;;;;;;;19.84;30.44;98881.03;16153650;19;129360;-72
2024/01/17 18:43:19;;;;;;;10.27;3.13;;;;;;;19.93;29.83;98895.88;16216265;19;128269;-72
2024/01/17 18:48:46;;;;;;;9.82;3.20;;;;;;;20.02;30.18;98893.25;16205882;19;128937;-73
2024/01/17 18:54:09;;;;;;;11.30;4.00;;;;;;;20.06;29.68;98908.16;16153129;19;129392;-74
2024/01/17 18:59:31;;;;;;;8.73;3.30;;;;;;;20.18;30.41;98916.00;16156518;19;129744;-75
2024/01/17 19:04:53;;;;;;;10.05;3.17;;;;;;;20.31;30.50;98922.72;16138435;19;132052;-73
2024/01/17 19:10:15;;;;;;;5.72;2.67;;;;;;;20.44;30.48;98921.91;16133218;19;129432;-75
2024/01/17 19:15:37;;;;;;;6.45;2.35;;;;;;;20.59;30.18;98917.19;16132075;19;129497;-74
2024/01/17 19:20:59;;;;;;;6.13;2.20;;;;;;;20.72;30.39;98927.47;16129698;19;131609;-75
2024/01/17 19:26:21;;;;;;;6.05;2.85;;;;;;;20.84;30.35;98926.97;16133394;19;129656;-75
2024/01/17 19:31:44;;;;;;;6.88;2.45;;;;;;;20.95;30.55;98922.03;16130827;19;129167;-75
2024/01/17 19:37:07;;;;;;;5.47;2.10;;;;;;;21.06;30.35;98931.78;16131804;19;129997;-75
2024/01/17 19:42:31;;;;;;;5.40;2.03;;;;;;;21.15;29.98;98939.38;16125012;19;129689;-74
2024/01/17 19:47:53;;;;;;;4.20;1.90;;;;;;;21.19;29.94;98938.44;16135504;19;129846;-74
2024/01/17 19:53:17;;;;;;;6.20;1.80;;;;;;;21.20;29.51;98956.75;16121692;19;129496;-74
2024/01/17 19:58:39;;;;;;;4.75;1.95;;;;;;;21.17;29.82;98968.50;16123315;19;129251;-75
2024/01/17 20:04:02;;;;;;;5.70;2.00;;;;;;;21.12;29.61;98993.66;16125429;19;129176;-75
2024/01/17 20:09:24;;;;;;;5.70;2.00;;;;;;;21.06;29.73;98992.09;16120765;19;129673;-74
2024/01/17 20:14:46;;;;;;;9.77;2.53;;;;;;;20.97;29.56;99005.94;16122652;19;129438;-74
2024/01/17 20:20:13;;;;;;;6.90;1.83;;;;;;;20.86;29.59;99016.41;16122521;19;129299;-75
2024/01/17 20:25:36;;;;;;;7.82;2.33;;;;;;;20.74;29.83;99029.97;16121446;19;129368;-75
2024/01/17 20:30:58;;;;;;;6.43;1.95;;;;;;;20.63;29.83;99025.72;16138716;19;130988;-75
2024/01/17 20:36:22;;;;;;;9.63;2.10;;;;;;;20.51;29.89;99021.50;16143408;19;130224;-74
2024/01/17 20:41:45;;;;;;;8.48;2.58;;;;;;;20.39;29.98;99018.38;16142273;19;128964;-74
2024/01/17 20:47:07;;;;;;;11.13;2.78;;;;;;;20.27;29.48;99029.94;16139464;19;129618;-75
2024/01/17 20:52:33;;;;;;;9.23;2.95;;;;;;;20.14;29.68;99035.16;16154996;19;129416;-74
2024/01/17 20:57:55;;;;;;;13.73;3.25;;;;;;;20.03;29.42;99035.63;16193226;19;131718;-73
2024/01/17 21:03:17;;;;;;;10.05;3.05;;;;;;;19.90;29.74;99037.19;16194536;19;129078;-74
2024/01/17 21:08:41;;;;;;;10.15;2.65;;;;;;;19.78;29.84;99060.66;16200500;19;129014;-75
2024/01/17 21:14:05;;;;;;;6.88;2.63;;;;;;;19.65;29.64;99070.56;16151277;19;130663;-73
2024/01/17 21:19:28;;;;;;;8.27;2.55;;;;;;;19.52;29.80;99071.28;16143137;19;130115;-72
2024/01/17 21:24:51;;;;;;;12.88;3.10;;;;;;;19.43;30.03;99078.63;16138272;19;129308;-74
2024/01/17 21:30:14;;;;;;;13.13;3.30;;;;;;;19.31;30.07;99099.28;16143244;19;130334;-75
2024/01/17 21:35:36;;;;;;;7.93;2.95;;;;;;;19.20;29.86;99094.97;16148632;19;129047;-74
2024/01/17 21:40:58;;;;;;;10.85;2.70;;;;;;;19.09;30.29;99110.88;16158704;19;129112;-73
2024/01/17 21:46:20;;;;;;;6.13;2.53;;;;;;;18.99;30.11;99111.78;16173651;19;129166;-74
2024/01/17 21:51:42;;;;;;;10.82;2.60;;;;;;;18.89;30.31;99122.97;16220340;19;128818;-73
2024/01/17 21:57:05;;;;;;;9.35;3.10;;;;;;;18.81;30.16;99116.13;16228447;19;128531;-74
2024/01/17 22:02:27;;;;;;;14.60;3.28;;;;;;;18.72;30.36;99121.47;16198873;19;129891;-74
2024/01/17 22:07:52;;;;;;;9.55;3.38;;;;;;;18.66;30.14;99125.41;16167818;19;129179;-74
2024/01/17 22:13:14;;;;;;;15.63;3.53;;;;;;;18.57;30.46;99124.38;16166064;19;128989;-74
2024/01/17 22:18:37;;;;;;;9.43;2.97;;;;;;;18.50;30.32;99129.41;16145933;19;129118;-74
2024/01/17 22:23:59;;;;;;;9.93;2.88;;;;;;;18.41;30.84;99134.75;16135263;19;129457;-74
2024/01/17 22:29:21;;;;;;;12.50;3.03;;;;;;;18.32;30.65;99131.75;16143109;19;129796;-74
2024/01/17 22:34:43;;;;;;;12.50;2.55;;;;;;;18.22;31.19;99137.34;16136592;19;130097;-74
2024/01/17 22:40:07;;;;;;;10.38;2.70;;;;;;;18.14;30.93;99147.91;16137502;19;129812;-75
2024/01/17 22:45:30;;;;;;;8.70;2.42;;;;;;;18.08;31.41;99159.28;16132933;19;129394;-75
2024/01/17 22:50:52;;;;;;;8.45;2.38;;;;;;;18.00;31.31;99160.72;16137814;19;130416;-74
2024/01/17 22:56:14;;;;;;;9.25;2.30;;;;;;;17.94;31.66;99161.88;16131431;19;130565;-75
2024/01/17 23:01:36;;;;;;;12.82;2.40;;;;;;;17.87;31.33;99186.25;16137170;19;130125;-75
2024/01/17 23:06:59;;;;;;;7.18;1.98;;;;;;;17.81;31.40;99191.81;16130686;19;130013;-74
2024/01/17 23:12:21;;;;;;;6.75;2.30;;;;;;;17.76;31.70;99205.66;16123829;19;129433;-74
2024/01/17 23:17:43;;;;;;;7.75;2.30;;;;;;;17.72;31.69;99206.50;16127635;19;129551;-74
2024/01/17 23:23:05;;;;;;;6.47;2.15;;;;;;;17.67;32.07;99210.13;16124614;19;131356;-75
2024/01/17 23:28:27;;;;;;;5.03;2.30;;;;;;;17.63;31.69;99209.00;16137121;19;129750;-74
2024/01/17 23:33:49;;;;;;;8.30;1.90;;;;;;;17.57;32.19;99215.69;16129150;19;129403;-74
2024/01/17 23:39:11;;;;;;;12.70;2.00;;;;;;;17.51;31.88;99221.19;16126751;19;130841;-74
2024/01/17 23:44:34;;;;;;;5.20;1.90;;;;;;;17.46;32.19;99221.22;16141373;19;130466;-74
2024/01/17 23:49:59;;;;;;;5.25;1.80;;;;;;;17.43;32.40;99224.53;16182542;19;129403;-74
2024/01/17 23:55:22;;;;;;;8.27;2.38;;;;;;;17.37;31.96;99231.16;16186554;19;128929;-75
